Time;durP1;ratioP1;P1;durP2;ratioP2;P2;SDS_P1;SDS_P2;PMS_P1;PMS_P2;Temp;Humidity;BMP_temperature;BMP_pressure;BME280_temperature;BME280_humidity;BME280_pressure;Samples;Min_cycle;Max_cycle;Signal;HPM_P1;HPM_P2
2023/10/01 00:00:21;;;;;;;12.20;3.60;;;;;;;11.69;72.83;101534.69;110642;1210;112482;-60
2023/10/01 00:02:51;;;;;;;18.60;4.20;;;;;;;11.67;72.83;101532.61;110894;1214;99039;-60
2023/10/01 00:05:17;;;;;;;11.40;3.70;;;;;;;11.66;72.80;101530.88;110652;1214;107856;-59
2023/10/01 00:07:43;;;;;;;12.70;3.60;;;;;;;11.64;72.98;101532.36;110631;1214;98998;-59
2023/10/01 00:10:10;;;;;;;16.70;4.30;;;;;;;11.63;73.11;101533.80;110474;1211;139072;-59
2023/10/01 00:12:43;;;;;;;11.80;3.70;;;;;;;11.64;73.16;101533.96;110611;1214;99072;-60
2023/10/01 00:15:12;;;;;;;13.00;3.20;;;;;;;11.66;73.22;101534.80;110388;1214;139704;-60
2023/10/01 00:17:39;;;;;;;9.10;3.50;;;;;;;11.66;73.21;101540.52;110568;1214;98968;-59
2023/10/01 00:20:23;;;;;;;10.00;2.90;;;;;;;11.67;73.25;101544.80;110702;1214;99031;-61
2023/10/01 00:22:51;;;;;;;15.10;3.70;;;;;;;11.66;73.33;101545.36;110467;1211;140612;-61
2023/10/01 00:25:18;;;;;;;13.00;3.20;;;;;;;11.65;73.47;101543.77;110574;1214;99769;-61
2023/10/01 00:27:45;;;;;;;17.90;4.30;;;;;;;11.66;73.53;101541.25;110516;1211;139048;-61
2023/10/01 00:30:11;;;;;;;12.90;3.40;;;;;;;11.66;73.68;101536.92;110703;1211;98943;-60
2023/10/01 00:32:38;;;;;;;11.70;3.60;;;;;;;11.69;73.85;101529.85;110644;1214;99055;-61
2023/10/01 00:35:04;;;;;;;17.00;4.10;;;;;;;11.70;73.89;101528.55;110539;1209;142662;-61
2023/10/01 00:37:30;;;;;;;13.50;3.30;;;;;;;11.71;73.82;101528.01;110723;1214;108150;-61
2023/10/01 00:39:59;;;;;;;13.50;3.40;;;;;;;11.71;73.81;101529.98;110455;1212;139753;-60
2023/10/01 00:42:26;;;;;;;13.30;4.30;;;;;;;11.71;73.82;101526.02;110762;1213;99540;-60
2023/10/01 00:44:53;;;;;;;22.30;4.50;;;;;;;11.72;73.98;101522.61;110636;1210;140099;-60
2023/10/01 00:47:20;;;;;;;16.00;3.20;;;;;;;11.72;73.96;101524.39;110701;1214;99032;-61
2023/10/01 00:49:47;;;;;;;13.90;3.70;;;;;;;11.73;74.00;101516.31;110596;1214;99391;-61
2023/10/01 00:52:20;;;;;;;12.20;3.60;;;;;;;11.73;73.99;101510.74;110434;1221;139052;-61
2023/10/01 00:54:46;;;;;;;12.50;3.70;;;;;;;11.73;74.01;101500.53;110556;1214;99045;-61
2023/10/01 00:57:12;;;;;;;11.60;3.10;;;;;;;11.73;74.00;101507.52;110488;1211;140166;-61
2023/10/01 00:59:37;;;;;;;15.90;2.80;;;;;;;11.72;74.06;101522.05;110726;1210;99453;-60
2023/10/01 01:02:07;;;;;;;14.00;3.80;;;;;;;11.70;74.13;101523.71;110591;1209;98926;-61
2023/10/01 01:04:42;;;;;;;14.60;3.40;;;;;;;11.67;74.02;101524.73;110542;1214;138966;-61
2023/10/01 01:07:20;;;;;;;12.90;4.00;;;;;;;11.64;74.19;101516.96;110538;1213;113253;-60
2023/10/01 01:09:49;;;;;;;21.50;4.40;;;;;;;11.61;74.14;101514.54;110456;1214;141332;-62
2023/10/01 01:12:15;;;;;;;14.60;3.90;;;;;;;11.60;74.26;101510.81;110602;1214;108509;-61
2023/10/01 01:14:45;;;;;;;13.60;3.90;;;;;;;11.60;74.26;101506.88;110599;1212;98981;-61
2023/10/01 01:17:11;;;;;;;12.00;3.10;;;;;;;11.59;74.26;101504.77;110432;1214;139866;-61
2023/10/01 01:19:37;;;;;;;11.80;3.10;;;;;;;11.60;74.28;101499.39;110731;1214;99032;-61
2023/10/01 01:22:03;;;;;;;13.30;3.40;;;;;;;11.58;74.36;101499.42;110471;1209;139633;-61
2023/10/01 01:24:29;;;;;;;8.60;3.40;;;;;;;11.59;74.44;101499.58;110578;1208;99053;-60
2023/10/01 01:27:00;;;;;;;13.40;3.20;;;;;;;11.60;74.47;101493.84;110571;1212;140586;-61
2023/10/01 01:29:34;;;;;;;10.90;3.30;;;;;;;11.60;74.64;101491.31;110707;1212;112432;-61
2023/10/01 01:32:15;;;;;;;10.70;3.60;;;;;;;11.60;74.59;101491.66;110598;1209;99681;-61
2023/10/01 01:34:41;;;;;;;11.90;3.40;;;;;;;11.61;74.68;101486.98;110486;1214;139415;-61
2023/10/01 01:37:07;;;;;;;12.00;3.50;;;;;;;11.62;74.64;101488.58;110718;1214;98945;-61
2023/10/01 01:39:54;;;;;;;7.10;2.60;;;;;;;11.63;74.82;101486.19;110576;1210;140396;-61
2023/10/01 01:42:21;;;;;;;7.90;3.20;;;;;;;11.65;74.80;101488.29;110621;1209;112890;-61
2023/10/01 01:45:14;;;;;;;10.10;3.00;;;;;;;11.65;74.81;101493.11;110752;1210;99035;-61
2023/10/01 01:47:35;;;;;;;10.80;3.10;;;;;;;11.64;74.78;101494.73;110592;1213;108189;-61
2023/10/01 01:50:10;;;;;;;12.80;3.20;;;;;;;11.63;74.87;101491.19;110670;1213;99022;-61
2023/10/01 01:52:36;;;;;;;10.20;3.20;;;;;;;11.64;74.96;101490.29;110363;1209;139006;-61
2023/10/01 01:55:23;;;;;;;14.30;3.30;;;;;;;11.64;74.95;101487.60;110580;1214;111767;-61
2023/10/01 01:58:02;;;;;;;12.10;2.70;;;;;;;11.65;75.06;101480.77;110520;1211;140569;-61
2023/10/01 02:00:31;;;;;;;19.10;4.00;;;;;;;11.64;75.05;101481.70;110588;1214;108283;-60
2023/10/01 02:02:59;;;;;;;13.60;3.80;;;;;;;11.64;75.23;101487.05;110596;1214;141036;-61
2023/10/01 02:05:29;;;;;;;8.50;3.80;;;;;;;11.64;75.37;101488.84;110833;1210;100543;-60
2023/10/01 02:07:54;;;;;;;8.30;2.70;;;;;;;11.67;75.38;101486.06;110633;1208;111953;-60
2023/10/01 02:10:20;;;;;;;14.10;3.40;;;;;;;11.67;75.42;101479.77;110484;1214;140207;-59
2023/10/01 02:12:47;;;;;;;14.80;3.10;;;;;;;11.67;75.45;101474.96;110782;1215;99076;-59
2023/10/01 02:15:13;;;;;;;10.90;3.40;;;;;;;11.69;75.48;101482.78;110661;1213;139756;-58
2023/10/01 02:17:39;;;;;;;14.40;3.40;;;;;;;11.71;75.67;101482.16;110592;1212;98945;-59
2023/10/01 02:20:14;;;;;;;15.00;3.20;;;;;;;11.71;75.59;101474.10;110657;1209;99165;-59
2023/10/01 02:22:40;;;;;;;11.60;3.00;;;;;;;11.70;75.67;101469.30;110468;1210;138826;-58
2023/10/01 02:25:10;;;;;;;14.20;3.40;;;;;;;11.70;75.70;101479.52;110538;1212;99024;-59
2023/10/01 02:27:43;;;;;;;11.00;3.40;;;;;;;11.70;75.76;101472.89;110559;1214;140261;-58
2023/10/01 02:30:14;;;;;;;9.10;2.70;;;;;;;11.71;75.91;101473.40;110520;1214;99988;-60
2023/10/01 02:32:49;;;;;;;14.10;3.50;;;;;;;11.71;75.90;101478.58;110621;1214;106892;-59
2023/10/01 02:35:36;;;;;;;14.20;2.90;;;;;;;11.71;75.95;101474.11;110564;1209;100680;-61
2023/10/01 02:38:45;;;;;;;8.30;2.90;;;;;;;11.72;76.06;101475.15;110527;1210;99063;-61
2023/10/01 02:41:13;;;;;;;9.00;3.20;;;;;;;11.72;76.05;101471.56;110483;1210;140879;-59
2023/10/01 02:43:41;;;;;;;13.80;2.90;;;;;;;11.73;75.99;101481.04;110573;1215;100123;-59
2023/10/01 02:46:12;;;;;;;11.00;2.80;;;;;;;11.75;76.09;101479.33;110429;1214;139536;-59
2023/10/01 02:48:41;;;;;;;12.50;2.80;;;;;;;11.77;76.30;101476.77;110627;1214;99025;-59
2023/10/01 02:51:16;;;;;;;9.60;2.40;;;;;;;11.78;76.36;101475.15;110824;1223;139583;-60
2023/10/01 02:54:01;;;;;;;16.70;2.90;;;;;;;11.78;76.37;101474.06;110605;1214;113027;-59
2023/10/01 02:56:33;;;;;;;12.80;2.90;;;;;;;11.81;76.41;101471.65;110651;1216;100542;-60
2023/10/01 02:59:10;;;;;;;8.90;3.10;;;;;;;11.82;76.40;101474.29;110464;1214;139869;-59
2023/10/01 03:01:42;;;;;;;7.50;2.50;;;;;;;11.84;76.35;101478.15;110552;1224;99009;-59
2023/10/01 03:04:13;;;;;;;9.60;2.50;;;;;;;11.86;76.37;101481.30;110468;1214;140880;-60
2023/10/01 03:06:47;;;;;;;10.80;2.70;;;;;;;11.87;76.32;101477.69;110649;1215;112978;-59
2023/10/01 03:09:34;;;;;;;8.20;2.20;;;;;;;11.88;76.43;101470.13;110486;1210;140933;-59
2023/10/01 03:15:00;;;;;;;11.40;2.80;;;;;;;11.88;76.59;101471.02;110698;1213;99064;-59
2023/10/01 03:17:34;;;;;;;13.00;2.80;;;;;;;11.87;76.62;101467.31;110679;1214;99289;-59
2023/10/01 03:20:12;;;;;;;10.10;2.30;;;;;;;11.87;76.57;101463.38;110957;1214;112399;-59
2023/10/01 03:22:39;;;;;;;11.90;3.20;;;;;;;11.86;76.62;101460.71;110469;1212;140799;-59
2023/10/01 03:25:12;;;;;;;8.80;2.70;;;;;;;11.87;76.79;101454.23;110507;1209;99031;-59
2023/10/01 03:27:39;;;;;;;14.40;3.20;;;;;;;11.88;76.59;101456.54;110450;1214;138953;-60
2023/10/01 03:30:19;;;;;;;9.70;2.40;;;;;;;11.88;76.60;101457.42;110583;1214;99059;-60
2023/10/01 03:32:46;;;;;;;8.90;2.80;;;;;;;11.88;76.75;101459.75;110646;1210;112003;-60
2023/10/01 03:35:12;;;;;;;9.90;2.70;;;;;;;11.88;76.68;101463.52;110430;1215;138686;-60
2023/10/01 03:37:38;;;;;;;13.70;3.40;;;;;;;11.88;76.78;101458.31;110698;1209;99480;-60
2023/10/01 03:40:22;;;;;;;7.90;2.20;;;;;;;11.90;76.67;101457.55;110536;1214;138822;-59
2023/10/01 03:42:51;;;;;;;12.60;2.80;;;;;;;11.91;76.65;101455.86;110540;1215;112929;-59
2023/10/01 03:45:37;;;;;;;6.70;2.50;;;;;;;11.91;76.55;101463.59;110510;1214;139473;-60
2023/10/01 03:48:06;;;;;;;11.20;2.70;;;;;;;11.90;76.76;101468.08;110598;1215;108004;-59
2023/10/01 03:50:32;;;;;;;9.20;3.00;;;;;;;11.90;76.61;101470.23;110629;1210;99036;-60
2023/10/01 03:52:59;;;;;;;10.20;2.60;;;;;;;11.91;76.71;101467.89;110421;1210;139927;-60
2023/10/01 03:58:06;;;;;;;10.20;2.50;;;;;;;11.90;76.69;101479.90;110468;1209;139217;-60
2023/10/01 04:00:34;;;;;;;;;;;;;;;11.89;76.70;101483.71;110667;1215;99464;-59
2023/10/01 04:03:01;;;;;;;9.00;3.10;;;;;;;11.86;76.77;101480.77;110531;1223;125258;-60
2023/10/01 04:05:44;;;;;;;8.50;2.50;;;;;;;11.87;76.67;101484.50;110751;1214;99036;-60
2023/10/01 04:08:11;;;;;;;11.60;3.30;;;;;;;11.86;76.73;101481.31;110627;1213;100207;-60
2023/10/01 04:10:38;;;;;;;9.50;2.60;;;;;;;11.84;76.88;101481.19;110515;1215;139839;-60
2023/10/01 04:13:12;;;;;;;10.20;3.10;;;;;;;11.83;76.90;101478.39;110604;1209;100503;-60
2023/10/01 04:15:49;;;;;;;11.70;2.70;;;;;;;11.82;76.89;101481.65;110504;1214;140053;-61
2023/10/01 04:20:48;;;;;;;12.60;3.00;;;;;;;11.81;77.01;101475.76;110629;1209;99171;-59
2023/10/01 04:23:30;;;;;;;10.80;2.50;;;;;;;11.81;77.02;101467.36;110460;1215;141744;-60
2023/10/01 04:26:04;;;;;;;10.60;2.90;;;;;;;11.80;76.98;101464.70;110538;1210;98958;-59
2023/10/01 04:28:31;;;;;;;8.30;2.70;;;;;;;11.80;77.04;101460.76;110577;1210;139325;-61
2023/10/01 04:30:56;;;;;;;5.90;2.50;;;;;;;11.80;77.09;101458.05;110715;1209;99650;-60
2023/10/01 04:33:24;;;;;;;14.20;3.10;;;;;;;11.80;77.15;101454.84;110658;1209;141088;-60
2023/10/01 04:35:58;;;;;;;10.90;3.70;;;;;;;11.81;77.19;101460.36;110650;1223;99355;-60
2023/10/01 04:38:32;;;;;;;11.50;2.70;;;;;;;11.80;77.06;101466.82;110650;1215;97902;-60
2023/10/01 04:41:07;;;;;;;6.60;2.30;;;;;;;11.80;77.16;101470.07;110556;1209;140586;-60
2023/10/01 04:43:35;;;;;;;9.30;2.80;;;;;;;11.80;77.23;101473.45;110802;1209;99676;-60
2023/10/01 04:46:08;;;;;;;11.20;2.70;;;;;;;11.80;77.17;101467.74;110446;1209;140039;-61
2023/10/01 04:48:36;;;;;;;14.90;3.10;;;;;;;11.79;77.25;101469.74;110833;1223;99042;-59
2023/10/01 04:51:03;;;;;;;12.60;3.50;;;;;;;11.79;77.19;101464.55;110563;1210;139133;-60
2023/10/01 04:53:28;;;;;;;9.40;3.60;;;;;;;11.80;77.33;101466.86;110664;1215;99061;-59
2023/10/01 04:56:00;;;;;;;9.60;2.70;;;;;;;11.80;77.36;101464.16;110690;1213;98955;-60
2023/10/01 04:58:26;;;;;;;9.30;2.60;;;;;;;11.80;77.45;101466.67;110518;1209;139591;-60
2023/10/01 05:00:54;;;;;;;8.00;2.90;;;;;;;11.81;77.44;101467.54;110432;1209;98970;-60
2023/10/01 05:03:36;;;;;;;11.40;3.50;;;;;;;11.81;77.41;101473.08;110518;1209;139632;-60
2023/10/01 05:06:02;;;;;;;15.80;4.10;;;;;;;11.80;77.50;101473.30;110626;1215;100019;-60
2023/10/01 05:08:38;;;;;;;10.90;3.50;;;;;;;11.80;77.56;101481.73;110706;1215;99061;-60
2023/10/01 05:11:11;;;;;;;13.20;3.80;;;;;;;11.79;77.57;101481.91;110467;1215;141431;-60
2023/10/01 05:13:41;;;;;;;14.50;3.00;;;;;;;11.78;77.68;101484.98;110684;1215;99895;-60
2023/10/01 05:16:13;;;;;;;15.60;3.40;;;;;;;11.77;77.80;101484.83;110468;1215;140319;-61
2023/10/01 05:19:03;;;;;;;13.40;3.50;;;;;;;11.77;77.85;101479.64;110550;1209;100511;-60
2023/10/01 05:21:29;;;;;;;15.90;3.30;;;;;;;11.79;77.96;101469.38;110537;1215;141062;-60
2023/10/01 05:23:55;;;;;;;15.20;3.30;;;;;;;11.82;78.03;101475.55;110594;1209;99117;-60
2023/10/01 05:26:21;;;;;;;15.40;3.00;;;;;;;11.83;78.00;101469.23;110704;1214;98955;-59
2023/10/01 05:28:48;;;;;;;13.40;3.20;;;;;;;11.87;78.05;101471.60;110543;1209;140312;-60
2023/10/01 05:31:24;;;;;;;9.40;2.90;;;;;;;11.92;78.19;101469.10;110633;1214;99558;-60
2023/10/01 05:33:52;;;;;;;14.10;3.40;;;;;;;11.95;78.14;101475.08;110429;1213;138634;-60
2023/10/01 05:36:19;;;;;;;15.30;3.20;;;;;;;11.97;78.17;101475.36;112802;1209;96881;-61
2023/10/01 05:38:45;;;;;;;9.10;2.90;;;;;;;11.98;78.13;101476.92;112785;1209;98461;-60
2023/10/01 05:41:15;;;;;;;14.40;2.40;;;;;;;12.00;78.17;101475.77;112105;1215;138779;-60
2023/10/01 05:43:50;;;;;;;16.20;3.10;;;;;;;12.03;78.05;101478.02;110558;1214;107921;-60
2023/10/01 05:46:17;;;;;;;14.10;3.50;;;;;;;12.06;78.14;101480.95;110706;1210;139137;-60
2023/10/01 05:48:43;;;;;;;10.50;3.30;;;;;;;12.08;78.14;101491.09;110596;1215;97923;-60
2023/10/01 05:51:18;;;;;;;10.50;3.10;;;;;;;12.08;78.12;101487.52;110346;1214;139578;-60
2023/10/01 05:53:48;;;;;;;8.20;2.70;;;;;;;12.08;78.13;101492.53;110519;1215;100178;-60
2023/10/01 05:56:15;;;;;;;9.30;3.10;;;;;;;12.04;78.16;101489.97;110534;1209;107972;-59
2023/10/01 05:58:41;;;;;;;8.20;3.10;;;;;;;12.02;78.13;101486.11;110414;1209;141375;-59
2023/10/01 06:01:16;;;;;;;12.30;3.00;;;;;;;12.02;78.31;101487.19;110663;1209;99044;-60
2023/10/01 06:03:43;;;;;;;13.50;4.40;;;;;;;12.01;78.36;101480.05;110593;1215;141739;-60
2023/10/01 06:06:14;;;;;;;13.20;3.20;;;;;;;12.02;78.39;101473.04;110566;1215;100160;-60
2023/10/01 06:08:49;;;;;;;12.50;3.60;;;;;;;12.05;78.33;101470.43;110516;1215;107779;-60
2023/10/01 06:11:17;;;;;;;14.90;3.50;;;;;;;12.09;78.29;101467.42;110469;1215;139988;-60
2023/10/01 06:13:51;;;;;;;16.10;3.40;;;;;;;12.12;78.29;101464.25;110493;1209;99471;-60
2023/10/01 06:16:24;;;;;;;11.20;4.10;;;;;;;12.14;78.30;101467.04;110433;1212;140147;-60
2023/10/01 06:18:57;;;;;;;8.70;3.60;;;;;;;12.17;78.38;101473.20;112809;1209;99166;-60
2023/10/01 06:21:33;;;;;;;18.80;4.00;;;;;;;12.21;78.43;101476.48;112712;1209;138960;-60
2023/10/01 06:24:03;;;;;;;20.40;3.40;;;;;;;12.24;78.41;101474.38;111182;1209;99037;-60
2023/10/01 06:26:33;;;;;;;13.00;3.60;;;;;;;12.26;78.40;101476.80;110513;1215;99381;-60
2023/10/01 06:29:02;;;;;;;14.50;4.00;;;;;;;12.31;78.44;101479.48;110420;1209;140083;-60
2023/10/01 06:31:27;;;;;;;8.20;3.40;;;;;;;12.37;78.34;101483.75;110535;1215;100066;-60
2023/10/01 06:33:57;;;;;;;13.10;3.70;;;;;;;12.42;78.42;101482.13;110106;1215;139849;-60
2023/10/01 06:36:23;;;;;;;9.70;3.40;;;;;;;12.47;78.53;101481.04;110696;1213;99115;-61
2023/10/01 06:38:53;;;;;;;9.40;2.80;;;;;;;12.52;78.42;101486.95;110761;1214;99705;-61
2023/10/01 06:41:25;;;;;;;11.90;3.20;;;;;;;12.54;78.52;101484.87;110461;1209;140446;-60
2023/10/01 06:43:56;;;;;;;16.20;4.30;;;;;;;12.57;78.49;101488.00;110373;1213;100157;-61
2023/10/01 06:46:28;;;;;;;10.70;3.70;;;;;;;12.62;78.52;101488.37;110226;1214;140720;-61
2023/10/01 06:48:58;;;;;;;12.00;3.70;;;;;;;12.66;78.47;101492.85;110537;1214;98943;-60
2023/10/01 06:51:25;;;;;;;14.00;4.40;;;;;;;12.70;78.41;101492.36;110553;1213;139177;-60
2023/10/01 06:53:58;;;;;;;14.60;3.30;;;;;;;12.73;78.49;101493.88;110467;1210;100489;-60
2023/10/01 06:56:29;;;;;;;8.60;4.60;;;;;;;12.76;78.42;101493.39;110502;1210;100046;-60
2023/10/01 07:01:34;;;;;;;8.60;3.00;;;;;;;12.80;78.41;101486.57;110535;1209;98981;-60
2023/10/01 07:04:00;;;;;;;11.80;3.40;;;;;;;12.86;78.49;101488.87;110319;1210;139528;-60
2023/10/01 07:06:26;;;;;;;15.00;3.40;;;;;;;12.90;78.37;101488.14;110716;1210;100677;-60
2023/10/01 07:08:53;;;;;;;12.10;3.30;;;;;;;12.93;78.23;101486.04;110492;1209;99067;-59
2023/10/01 07:11:19;;;;;;;8.70;3.70;;;;;;;12.98;78.28;101489.43;110405;1215;139293;-60
2023/10/01 07:13:46;;;;;;;16.10;4.00;;;;;;;13.04;78.30;101490.98;110546;1210;99019;-59
2023/10/01 07:16:17;;;;;;;15.00;3.30;;;;;;;13.08;78.10;101490.27;110393;1209;140049;-60
2023/10/01 07:18:43;;;;;;;14.60;3.90;;;;;;;13.12;78.18;101489.01;110688;1209;99557;-60
2023/10/01 07:21:11;;;;;;;12.20;3.70;;;;;;;13.18;78.11;101491.31;110398;1213;141006;-60
2023/10/01 07:23:38;;;;;;;9.40;3.20;;;;;;;13.21;78.05;101489.43;110568;1212;99018;-60
2023/10/01 07:26:05;;;;;;;8.70;3.40;;;;;;;13.25;78.04;101489.23;110556;1214;99060;-60
2023/10/01 07:28:31;;;;;;;6.40;2.70;;;;;;;13.30;78.01;101486.36;110503;1209;139729;-61
2023/10/01 07:31:01;;;;;;;19.50;4.50;;;;;;;13.35;77.95;101484.89;110801;1209;98401;-61
2023/10/01 07:33:28;;;;;;;19.50;4.00;;;;;;;13.45;77.86;101490.94;110547;1210;139579;-61
2023/10/01 07:36:00;;;;;;;11.70;3.50;;;;;;;13.52;77.79;101491.54;110731;1213;99029;-61
2023/10/01 07:38:31;;;;;;;7.10;3.20;;;;;;;13.60;77.79;101484.73;110791;1213;112901;-61
2023/10/01 07:40:59;;;;;;;13.60;3.80;;;;;;;13.70;77.74;101488.78;110672;1209;139713;-61
2023/10/01 07:43:25;;;;;;;7.90;2.80;;;;;;;13.78;77.65;101489.35;110613;1210;108206;-61
2023/10/01 07:46:07;;;;;;;11.80;3.30;;;;;;;13.88;77.69;101491.44;110580;1209;140375;-61
2023/10/01 07:48:33;;;;;;;12.50;3.30;;;;;;;13.96;77.51;101496.28;110702;1213;99039;-61
2023/10/01 07:51:02;;;;;;;19.30;3.70;;;;;;;14.03;77.50;101499.59;110538;1209;139582;-62
2023/10/01 07:53:32;;;;;;;11.60;3.70;;;;;;;14.11;77.49;101502.45;110665;1209;100586;-62
2023/10/01 07:56:07;;;;;;;13.50;3.80;;;;;;;14.21;77.38;101505.05;110650;1214;110082;-61
2023/10/01 07:58:47;;;;;;;11.00;4.00;;;;;;;14.31;77.21;101502.27;110547;1224;139107;-62
2023/10/01 08:04:05;;;;;;;10.80;3.90;;;;;;;14.52;77.10;101507.25;110308;1214;140558;-62
2023/10/01 08:06:32;;;;;;;10.00;3.10;;;;;;;14.59;76.89;101506.04;110629;1215;99949;-61
2023/10/01 08:09:01;;;;;;;14.00;3.20;;;;;;;14.62;76.74;101505.91;110417;1210;138945;-61
2023/10/01 08:14:11;;;;;;;13.60;3.40;;;;;;;14.76;76.38;101499.17;110589;1215;99520;-61
2023/10/01 08:16:51;;;;;;;16.40;3.80;;;;;;;14.81;76.25;101498.17;110523;1210;138935;-61
2023/10/01 08:19:22;;;;;;;12.60;3.40;;;;;;;14.88;76.06;101495.52;110782;1215;99118;-61
2023/10/01 08:21:53;;;;;;;8.20;3.00;;;;;;;14.91;75.93;101492.64;110568;1213;140940;-67
2023/10/01 08:24:19;;;;;;;;;;;;;;;14.97;75.68;101491.48;110710;1214;99958;-62
2023/10/01 08:26:57;;;;;;;14.40;3.50;;;;;;;14.98;75.47;101484.07;110720;1213;99012;-61
2023/10/01 08:29:28;;;;;;;15.20;3.10;;;;;;;15.07;75.34;101485.60;110719;1209;113032;-61
2023/10/01 08:34:27;;;;;;;7.90;2.70;;;;;;;15.20;75.11;101489.05;110571;1209;140618;-61
2023/10/01 08:36:57;;;;;;;10.00;2.70;;;;;;;15.26;74.93;101492.77;110718;1212;99041;-61
2023/10/01 08:42:12;;;;;;;17.10;3.00;;;;;;;15.33;74.62;101495.50;110733;1214;111282;-62
2023/10/01 08:44:48;;;;;;;11.70;3.20;;;;;;;15.39;74.54;101492.10;110694;1209;99057;-62
2023/10/01 08:47:28;;;;;;;9.90;2.60;;;;;;;15.50;74.35;101496.44;110536;1209;138683;-61
2023/10/01 08:50:15;;;;;;;9.50;2.90;;;;;;;15.61;74.22;101498.02;110526;1215;99122;-62
2023/10/01 08:52:52;;;;;;;15.40;3.20;;;;;;;15.69;73.85;101491.11;110527;1214;139960;-62
2023/10/01 08:55:21;;;;;;;10.60;3.00;;;;;;;15.79;73.75;101493.83;110661;1209;113283;-62
2023/10/01 08:57:46;;;;;;;9.20;3.10;;;;;;;15.85;73.53;101489.73;110629;1212;139821;-62
2023/10/01 09:00:19;;;;;;;5.50;2.30;;;;;;;15.94;73.29;101489.65;110656;1209;98987;-61
2023/10/01 09:02:55;;;;;;;12.20;2.60;;;;;;;16.05;73.02;101493.41;110613;1215;99054;-62
2023/10/01 09:05:25;;;;;;;8.30;2.80;;;;;;;16.12;72.74;101497.20;110610;1214;140367;-62
2023/10/01 09:10:39;;;;;;;10.90;2.60;;;;;;;16.22;71.94;101498.06;110569;1214;139390;-62
2023/10/01 09:13:08;;;;;;;10.90;2.90;;;;;;;16.27;71.87;101492.59;110925;1212;107408;-61
2023/10/01 09:15:38;;;;;;;17.70;3.40;;;;;;;16.35;71.80;101496.64;110617;1214;140488;-61
2023/10/01 09:18:11;;;;;;;9.90;2.60;;;;;;;16.44;71.61;101496.37;110776;1215;99038;-61
2023/10/01 09:21:03;;;;;;;10.20;2.50;;;;;;;16.48;71.48;101499.71;110732;1213;114171;-61
2023/10/01 09:23:58;;;;;;;10.50;2.90;;;;;;;16.46;70.86;101505.41;110680;1214;99046;-61
2023/10/01 09:27:18;;;;;;;8.70;2.30;;;;;;;16.48;70.72;101499.92;110321;1209;108390;-61
2023/10/01 09:29:25;;;;;;;12.90;2.80;;;;;;;16.59;70.48;101501.32;110172;1209;139285;-61
2023/10/01 09:31:52;;;;;;;9.10;2.50;;;;;;;16.68;70.07;101501.02;110543;1214;99587;-61
2023/10/01 09:34:31;;;;;;;12.00;3.10;;;;;;;16.74;70.13;101499.26;110760;1209;139469;-61
2023/10/01 09:37:30;;;;;;;11.80;2.30;;;;;;;16.85;70.06;101498.61;110632;1214;99029;-61
2023/10/01 09:39:56;;;;;;;9.50;2.80;;;;;;;16.97;69.87;101495.26;110494;1215;138984;-61
2023/10/01 09:42:24;;;;;;;8.30;2.40;;;;;;;16.96;69.14;101492.23;110341;1214;98925;-60
2023/10/01 09:44:52;;;;;;;4.90;2.00;;;;;;;16.96;69.24;101496.73;110764;1209;99134;-61
2023/10/01 09:47:23;;;;;;;9.30;2.90;;;;;;;16.97;68.91;101494.88;110717;1209;140300;-61
2023/10/01 09:49:51;;;;;;;7.90;2.50;;;;;;;16.94;67.98;101494.71;110622;1211;98969;-60
2023/10/01 09:52:30;;;;;;;9.10;3.20;;;;;;;16.91;67.83;101493.95;110681;1209;140243;-61
2023/10/01 09:55:09;;;;;;;10.60;2.70;;;;;;;16.97;67.59;101494.36;110603;1209;99033;-61
2023/10/01 09:57:37;;;;;;;9.20;3.50;;;;;;;17.06;67.16;101496.90;110156;1215;139613;-61
2023/10/01 10:00:17;;;;;;;16.30;3.10;;;;;;;17.11;66.85;101496.23;110451;1209;104337;-60
2023/10/01 10:02:51;;;;;;;10.10;2.90;;;;;;;17.14;66.56;101492.27;110673;1213;99163;-60
2023/10/01 10:05:24;;;;;;;7.30;2.20;;;;;;;17.16;66.34;101487.08;110545;1214;139878;-60
2023/10/01 10:07:52;;;;;;;12.40;2.80;;;;;;;17.17;65.83;101491.02;110779;1209;97749;-61
2023/10/01 10:10:24;;;;;;;6.80;2.00;;;;;;;17.17;65.72;101490.85;110535;1215;140553;-61
2023/10/01 10:12:53;;;;;;;8.80;2.80;;;;;;;17.17;65.31;101490.30;110560;1210;105268;-60
2023/10/01 10:15:56;;;;;;;12.20;2.70;;;;;;;17.20;65.65;101489.22;110602;1214;139458;-61
2023/10/01 10:18:23;;;;;;;7.30;1.80;;;;;;;17.27;65.36;101486.68;110694;1214;99146;-61
2023/10/01 10:21:05;;;;;;;7.20;2.50;;;;;;;17.24;65.24;101480.14;110587;1209;99089;-61
2023/10/01 10:23:52;;;;;;;9.60;2.10;;;;;;;17.29;65.34;101482.04;110703;1210;99056;-62
2023/10/01 10:29:57;;;;;;;8.30;2.80;;;;;;;17.38;65.04;101476.80;110792;1209;98936;-62
2023/10/01 10:32:30;;;;;;;8.30;2.70;;;;;;;17.48;65.08;101474.38;110497;1209;99309;-60
2023/10/01 10:35:05;;;;;;;12.10;2.70;;;;;;;17.58;64.91;101476.69;110342;1215;138846;-61
2023/10/01 10:37:36;;;;;;;9.50;2.80;;;;;;;17.71;65.01;101478.31;110695;1210;99215;-60
2023/10/01 10:42:46;;;;;;;7.30;2.70;;;;;;;17.94;65.01;101467.35;110679;1209;98937;-61
2023/10/01 10:45:20;;;;;;;10.50;3.00;;;;;;;18.00;64.51;101464.44;110482;1223;139219;-61
2023/10/01 10:48:04;;;;;;;15.50;3.80;;;;;;;18.02;64.33;101468.47;110570;1212;99011;-61
2023/10/01 10:50:53;;;;;;;10.10;3.40;;;;;;;18.02;63.80;101469.90;110527;1214;99000;-61
2023/10/01 10:53:29;;;;;;;10.40;2.80;;;;;;;17.99;63.52;101468.27;110532;1210;140189;-62
2023/10/01 10:56:01;;;;;;;9.90;3.00;;;;;;;17.98;63.12;101466.75;110558;1209;99095;-60
2023/10/01 10:58:28;;;;;;;11.40;2.50;;;;;;;17.95;62.92;101468.02;110585;1213;138980;-60
2023/10/01 11:01:15;;;;;;;9.90;2.70;;;;;;;17.95;62.68;101465.31;110506;1209;99008;-61
2023/10/01 11:04:01;;;;;;;8.70;2.90;;;;;;;17.94;62.56;101461.90;110463;1210;138134;-61
2023/10/01 11:06:29;;;;;;;10.60;2.50;;;;;;;18.00;62.61;101460.84;110619;1214;104380;-61
2023/10/01 11:08:56;;;;;;;11.00;3.00;;;;;;;18.07;62.31;101454.23;110571;1209;98962;-62
2023/10/01 11:11:28;;;;;;;11.60;2.60;;;;;;;18.15;62.38;101458.06;110513;1213;138934;-61
2023/10/01 11:14:00;;;;;;;10.50;3.10;;;;;;;18.29;62.05;101453.39;110523;1225;98969;-62
2023/10/01 11:16:38;;;;;;;11.10;3.10;;;;;;;18.44;61.86;101443.19;112780;1209;138560;-62
2023/10/01 11:19:15;;;;;;;10.40;2.60;;;;;;;18.66;62.15;101440.16;112801;1210;104243;-62
2023/10/01 11:21:59;;;;;;;10.30;3.40;;;;;;;18.82;61.36;101443.48;111618;1209;139432;-61
2023/10/01 11:24:42;;;;;;;11.60;3.20;;;;;;;18.79;60.85;101434.59;110664;1210;100580;-61
2023/10/01 11:27:22;;;;;;;6.20;2.50;;;;;;;18.86;61.11;101432.36;110783;1209;141235;-61
2023/10/01 11:30:12;;;;;;;13.70;3.20;;;;;;;18.94;60.70;101425.67;110512;1213;99062;-61
2023/10/01 11:33:12;;;;;;;15.10;3.70;;;;;;;18.92;60.34;101426.30;110585;1208;105386;-62
2023/10/01 11:35:40;;;;;;;10.20;3.00;;;;;;;18.84;60.04;101429.78;110615;1209;99137;-62
2023/10/01 11:38:08;;;;;;;10.00;2.90;;;;;;;18.74;59.75;101425.14;110868;1209;99038;-62
2023/10/01 11:43:32;;;;;;;8.80;3.70;;;;;;;18.76;59.70;101423.92;110717;1209;98984;-63
2023/10/01 11:46:19;;;;;;;10.60;2.80;;;;;;;18.84;59.68;101420.91;110447;1211;138700;-61
2023/10/01 11:49:04;;;;;;;11.10;3.00;;;;;;;18.88;59.65;101421.56;110560;1209;99006;-60
2023/10/01 11:54:45;;;;;;;13.70;2.60;;;;;;;18.97;59.74;101415.33;110569;1210;99036;-60
2023/10/01 11:57:23;;;;;;;11.00;2.90;;;;;;;18.94;59.40;101417.84;110279;1210;138866;-60
2023/10/01 11:59:56;;;;;;;9.60;3.00;;;;;;;18.88;59.19;101413.00;110335;1214;103826;-61
2023/10/01 12:02:26;;;;;;;22.60;2.90;;;;;;;18.85;59.26;101414.88;110660;1213;99040;-58
2023/10/01 12:04:56;;;;;;;11.60;3.00;;;;;;;18.80;59.18;101415.33;110877;1210;140287;-59